createdAt,value
2023-02-18T00:02:01.308Z,99073.25
2023-02-18T00:04:35.210Z,99086.47
2023-02-18T00:07:08.759Z,99077.97
2023-02-18T00:09:42.171Z,99072.13
2023-02-18T00:12:15.456Z,99061.77
2023-02-18T00:14:48.675Z,99062.31
2023-02-18T00:17:22.147Z,99064.20
2023-02-18T00:19:55.684Z,99063.41
2023-02-18T00:22:29.066Z,99051.27
2023-02-18T00:25:02.556Z,99050.06
2023-02-18T00:27:36.051Z,99032.86
2023-02-18T00:30:11.949Z,99047.86
2023-02-18T00:32:45.556Z,99029.10
2023-02-18T00:35:19.703Z,99045.88
2023-02-18T00:37:54.738Z,99043.08
2023-02-18T00:40:28.188Z,99045.62
2023-02-18T00:43:01.721Z,99043.63
2023-02-18T00:45:36.847Z,99028.66
2023-02-18T00:48:10.294Z,99018.28
2023-02-18T00:50:43.844Z,99027.44
2023-02-18T00:53:18.306Z,99023.89
2023-02-18T00:55:52.297Z,99027.30
2023-02-18T00:58:26.008Z,99021.80
2023-02-18T01:00:59.723Z,99006.44
2023-02-18T01:03:33.445Z,99012.30
2023-02-18T01:06:08.817Z,99006.33
2023-02-18T01:08:43.492Z,98995.07
2023-02-18T01:11:17.051Z,98986.49
2023-02-18T01:13:52.027Z,98985.63
2023-02-18T01:16:25.800Z,98976.13
2023-02-18T01:18:59.547Z,98974.11
2023-02-18T01:21:32.652Z,98969.84
2023-02-18T01:24:07.291Z,98960.47
2023-02-18T01:26:41.249Z,98957.68
2023-02-18T01:29:14.823Z,98955.94
2023-02-18T01:31:48.707Z,98948.34
2023-02-18T01:34:22.347Z,98947.33
2023-02-18T01:36:58.033Z,98941.25
2023-02-18T01:39:31.815Z,98936.07
2023-02-18T01:42:05.556Z,98930.03
2023-02-18T01:44:40.468Z,98919.23
2023-02-18T01:47:13.885Z,98924.82
2023-02-18T01:49:49.679Z,98913.81
2023-02-18T01:52:25.903Z,98915.48
2023-02-18T01:55:00.458Z,98901.94
2023-02-18T01:57:37.792Z,98910.95
2023-02-18T02:00:16.184Z,98909.98
2023-02-18T02:02:54.127Z,98899.84
2023-02-18T02:05:30.005Z,98885.30
2023-02-18T02:08:04.583Z,98889.50
2023-02-18T02:10:43.689Z,98888.13
2023-02-18T02:13:20.136Z,98887.27
2023-02-18T02:15:58.270Z,98874.67
2023-02-18T02:18:39.565Z,98876.66
2023-02-18T02:21:55.621Z,98883.61
2023-02-18T02:27:51.356Z,98883.34
2023-02-18T02:30:50.954Z,98867.67
2023-02-18T02:36:43.965Z,98859.55
2023-02-18T02:39:20.275Z,98858.86
2023-02-18T02:41:56.675Z,98849.63
2023-02-18T02:44:34.865Z,98854.91
2023-02-18T02:47:12.592Z,98856.23
2023-02-18T02:49:49.167Z,98848.31
2023-02-18T02:52:25.776Z,98864.28
2023-02-18T02:54:59.864Z,98845.33
2023-02-18T02:57:49.958Z,98832.10
2023-02-18T03:00:28.310Z,98841.02
2023-02-18T03:03:46.074Z,98834.87
2023-02-18T03:06:39.834Z,98830.57
2023-02-18T03:09:18.041Z,98829.67
2023-02-18T03:11:55.373Z,98827.48
2023-02-18T03:14:35.290Z,98812.27
2023-02-18T03:17:11.619Z,98812.37
2023-02-18T03:19:48.705Z,98828.80
2023-02-18T03:22:22.257Z,98811.05
2023-02-18T03:24:59.012Z,98808.62
2023-02-18T03:27:36.857Z,98794.30
2023-02-18T03:30:15.136Z,98785.48
2023-02-18T03:32:50.801Z,98781.42
2023-02-18T03:35:24.949Z,98787.94
2023-02-18T03:38:03.761Z,98772.73
2023-02-18T03:40:37.161Z,98773.81
2023-02-18T03:43:10.769Z,98772.81
2023-02-18T03:45:44.440Z,98772.05
2023-02-18T03:48:18.671Z,98764.93
2023-02-18T03:50:52.132Z,98746.54
2023-02-18T03:53:25.656Z,98758.20
2023-02-18T03:56:00.156Z,98745.64
2023-02-18T03:58:33.430Z,98743.45
2023-02-18T04:01:07.641Z,98733.98
2023-02-18T04:03:41.024Z,98721.87
2023-02-18T04:06:14.857Z,98735.09
2023-02-18T04:08:48.597Z,98716.59
2023-02-18T04:11:21.996Z,98728.81
2023-02-18T04:13:55.352Z,98724.30
2023-02-18T04:16:28.977Z,98730.89
2023-02-18T04:19:02.775Z,98704.70
2023-02-18T04:21:36.769Z,98718.33
2023-02-18T04:24:10.238Z,98702.69
2023-02-18T04:26:43.752Z,98695.33
2023-02-18T04:29:17.416Z,98692.56
2023-02-18T04:31:50.807Z,98696.30
2023-02-18T04:34:24.299Z,98682.44
2023-02-18T04:36:57.768Z,98674.52
2023-02-18T04:39:31.071Z,98686.17
2023-02-18T04:42:07.142Z,98672.55
2023-02-18T04:44:41.424Z,98683.98
2023-02-18T04:47:14.975Z,98687.84
2023-02-18T04:49:48.269Z,98681.98
2023-02-18T04:52:22.144Z,98683.53
2023-02-18T04:54:55.590Z,98678.47
2023-02-18T04:57:29.095Z,98667.80
2023-02-18T05:00:03.750Z,98694.77
2023-02-18T05:02:37.267Z,98678.47
2023-02-18T05:05:11.601Z,98674.52
2023-02-18T05:07:47.179Z,98681.67
2023-02-18T05:10:21.126Z,98679.80
2023-02-18T05:12:54.857Z,98657.67
2023-02-18T05:15:29.001Z,98667.23
2023-02-18T05:18:02.509Z,98663.50
2023-02-18T05:20:36.095Z,98666.38
2023-02-18T05:23:09.253Z,98662.17
2023-02-18T05:25:42.537Z,98647.22
2023-02-18T05:28:15.790Z,98647.22
2023-02-18T05:30:49.594Z,98633.99
2023-02-18T05:33:23.145Z,98630.70
2023-02-18T05:35:56.762Z,98628.93
2023-02-18T05:38:30.581Z,98626.07
2023-02-18T05:41:06.963Z,98631.67
2023-02-18T05:43:59.410Z,98608.88
2023-02-18T05:46:33.228Z,98616.70
2023-02-18T05:49:06.718Z,98603.67
2023-02-18T05:51:40.302Z,98607.38
2023-02-18T05:54:13.781Z,98602.71
2023-02-18T05:56:47.357Z,98598.31
2023-02-18T05:59:21.343Z,98586.14
2023-02-18T06:01:55.060Z,98582.64
2023-02-18T06:04:28.561Z,98581.78
2023-02-18T06:07:02.013Z,98568.04
2023-02-18T06:09:35.497Z,98570.28
2023-02-18T06:12:09.874Z,98567.47
2023-02-18T06:14:43.463Z,98578.66
2023-02-18T06:17:18.861Z,98570.44
2023-02-18T06:19:52.511Z,98562.48
2023-02-18T06:22:25.988Z,98556.88
2023-02-18T06:24:59.513Z,98563.91
2023-02-18T06:27:34.654Z,98525.02
2023-02-18T06:30:10.463Z,98528.04
2023-02-18T06:32:43.905Z,98540.81
2023-02-18T06:35:17.473Z,98529.39
2023-02-18T06:37:50.872Z,98547.42
2023-02-18T06:40:24.443Z,98541.33
2023-02-18T06:42:57.865Z,98530.28
2023-02-18T06:45:31.250Z,98513.44
2023-02-18T06:48:05.962Z,98500.00
2023-02-18T06:50:39.058Z,98502.31
2023-02-18T06:53:12.713Z,98505.84
2023-02-18T06:55:46.696Z,98500.81
2023-02-18T06:58:20.185Z,98496.23
2023-02-18T07:00:53.727Z,98495.37
2023-02-18T07:03:27.271Z,98487.33
2023-02-18T07:06:00.850Z,98489.66
2023-02-18T07:08:35.946Z,98479.61
2023-02-18T07:11:09.748Z,98453.70
2023-02-18T07:13:42.969Z,98470.22
2023-02-18T07:16:16.261Z,98473.30
2023-02-18T07:18:49.737Z,98450.78
2023-02-18T07:21:23.464Z,98452.05
2023-02-18T07:23:56.827Z,98441.27
2023-02-18T07:26:30.345Z,98455.88
2023-02-18T07:29:03.743Z,98439.69
2023-02-18T07:31:38.998Z,98415.49
2023-02-18T07:34:12.503Z,98439.69
2023-02-18T07:36:45.825Z,98418.75
2023-02-18T07:39:20.935Z,98428.30
2023-02-18T07:41:54.814Z,98408.09
2023-02-18T07:44:29.490Z,98428.70
2023-02-18T07:47:02.904Z,98409.91
2023-02-18T07:49:36.349Z,98408.11
2023-02-18T07:52:09.892Z,98424.69
2023-02-18T07:54:43.406Z,98411.95
2023-02-18T07:57:16.899Z,98400.57
2023-02-18T07:59:50.653Z,98380.83
2023-02-18T08:02:25.434Z,98399.41
2023-02-18T08:04:58.898Z,98369.09
2023-02-18T08:07:34.139Z,98381.34
2023-02-18T08:10:09.799Z,98359.08
2023-02-18T08:12:44.262Z,98377.25
2023-02-18T08:15:17.997Z,98357.69
2023-02-18T08:17:51.492Z,98355.41
2023-02-18T08:20:25.211Z,98350.58
2023-02-18T08:22:58.777Z,98342.74
2023-02-18T08:25:32.126Z,98345.74
2023-02-18T08:28:06.034Z,98318.27
2023-02-18T08:30:39.868Z,98326.84
2023-02-18T08:33:13.925Z,98339.05
2023-02-18T08:35:51.763Z,98301.55
2023-02-18T08:38:26.666Z,98321.44
2023-02-18T08:41:05.959Z,98346.92
2023-02-18T08:43:39.815Z,98351.57
2023-02-18T08:46:14.609Z,98331.84
2023-02-18T08:48:48.678Z,98316.31
2023-02-18T08:51:26.387Z,98306.84
2023-02-18T08:53:58.984Z,98322.11
2023-02-18T08:56:32.798Z,98321.95
2023-02-18T08:59:06.588Z,98301.91
2023-02-18T09:01:40.179Z,98312.27
2023-02-18T09:04:13.759Z,98295.88
2023-02-18T09:06:47.195Z,98279.19
2023-02-18T09:09:20.751Z,98274.36
2023-02-18T09:11:54.087Z,98289.08
2023-02-18T09:14:27.684Z,98283.02
2023-02-18T09:17:01.246Z,98271.64
2023-02-18T09:19:35.760Z,98267.98
2023-02-18T09:22:09.156Z,98257.54
2023-02-18T09:24:43.872Z,98265.62
2023-02-18T09:27:17.389Z,98217.89
2023-02-18T09:29:51.842Z,98253.22
2023-02-18T09:32:34.358Z,98262.20
2023-02-18T09:35:00.147Z,98248.45
2023-02-18T09:37:34.386Z,98241.63
2023-02-18T09:40:09.840Z,98248.66
2023-02-18T09:42:43.481Z,98229.39
2023-02-18T09:45:17.178Z,98185.42
2023-02-18T09:47:52.209Z,98213.48
2023-02-18T09:50:28.993Z,98208.35
2023-02-18T09:53:03.827Z,98181.88
2023-02-18T09:55:41.272Z,98176.06
2023-02-18T09:58:17.817Z,98158.31
2023-02-18T10:00:54.207Z,98162.42
2023-02-18T10:03:30.773Z,98173.17
2023-02-18T10:06:08.209Z,98151.25
2023-02-18T10:08:45.907Z,98131.68
2023-02-18T10:11:21.984Z,98113.59
2023-02-18T10:13:57.617Z,98145.17
2023-02-18T10:16:32.318Z,98106.69
2023-02-18T10:19:08.814Z,98109.73
2023-02-18T10:21:42.725Z,98132.51
2023-02-18T10:24:19.769Z,98102.03
2023-02-18T10:26:53.272Z,98122.98
2023-02-18T10:29:27.458Z,98112.05
2023-02-18T10:32:03.947Z,98107.20
2023-02-18T10:34:43.889Z,98080.08
2023-02-18T10:38:01.621Z,98099.70
2023-02-18T10:40:39.371Z,98087.23
2023-02-18T10:43:13.095Z,98079.72
2023-02-18T10:45:49.741Z,98079.53
2023-02-18T10:48:31.308Z,98034.70
2023-02-18T10:51:11.008Z,98042.89
2023-02-18T10:53:47.121Z,98075.66
2023-02-18T10:56:36.950Z,98044.40
2023-02-18T10:59:15.819Z,98062.91
2023-02-18T11:01:50.742Z,98088.52
2023-02-18T11:04:27.462Z,98057.13
2023-02-18T11:07:03.739Z,98085.95
2023-02-18T11:09:43.556Z,98055.56
2023-02-18T11:12:20.682Z,98051.33
2023-02-18T11:15:06.909Z,98065.08
2023-02-18T11:17:40.858Z,98074.13
2023-02-18T11:20:27.418Z,98047.76
2023-02-18T11:23:03.679Z,98024.90
2023-02-18T11:25:38.786Z,98049.72
2023-02-18T11:28:26.998Z,98046.28
2023-02-18T11:31:03.794Z,98060.62
2023-02-18T11:33:40.747Z,98042.05
2023-02-18T11:36:21.490Z,98032.13
2023-02-18T11:38:57.797Z,98002.77
2023-02-18T11:41:37.552Z,98016.55
2023-02-18T11:44:21.775Z,98008.16
2023-02-18T11:47:02.407Z,98027.28
2023-02-18T11:49:36.920Z,98004.58
2023-02-18T11:52:20.012Z,98000.17
2023-02-18T11:55:04.840Z,97985.36
2023-02-18T11:57:41.338Z,97991.41
2023-02-18T12:00:24.573Z,97959.88
2023-02-18T12:03:01.024Z,97970.91
2023-02-18T12:05:35.826Z,97971.66
2023-02-18T12:08:14.687Z,97937.14
2023-02-18T12:10:51.766Z,97963.21
2023-02-18T12:13:29.487Z,97944.85
2023-02-18T12:16:08.337Z,97964.18
2023-02-18T12:18:52.969Z,97948.58
2023-02-18T12:21:33.717Z,97967.09
2023-02-18T12:24:22.615Z,97959.22
2023-02-18T12:27:00.428Z,97953.82
2023-02-18T12:29:36.353Z,97948.94
2023-02-18T12:32:19.389Z,97920.50
2023-02-18T12:35:03.082Z,97921.00
2023-02-18T12:37:56.914Z,97920.85
2023-02-18T12:40:52.087Z,97904.27
2023-02-18T12:43:34.055Z,97912.64
2023-02-18T12:46:23.471Z,97921.03
2023-02-18T12:49:11.223Z,97915.03
2023-02-18T12:51:54.496Z,97922.80
2023-02-18T12:54:36.872Z,97925.65
2023-02-18T12:57:26.626Z,97874.81
2023-02-18T13:00:45.827Z,97910.08
2023-02-18T13:04:04.820Z,97942.73
2023-02-18T13:07:06.302Z,97958.52
2023-02-18T13:09:47.214Z,97918.20
2023-02-18T13:12:23.625Z,97860.27
2023-02-18T13:15:00.153Z,97894.97
2023-02-18T13:17:37.524Z,97926.05
2023-02-18T13:20:17.264Z,97911.91
2023-02-18T13:22:53.407Z,97913.20
2023-02-18T13:25:26.661Z,97913.50
2023-02-18T13:28:03.431Z,97924.97
2023-02-18T13:30:41.236Z,97907.80
2023-02-18T13:33:18.154Z,97913.46
2023-02-18T13:35:55.805Z,97880.11
2023-02-18T13:38:31.417Z,97900.05
2023-02-18T13:41:08.952Z,97872.48
2023-02-18T13:43:46.118Z,97870.39
2023-02-18T13:46:21.972Z,97915.34
2023-02-18T13:49:07.389Z,97895.53
2023-02-18T13:51:43.852Z,97919.98
2023-02-18T13:54:20.471Z,97903.11
2023-02-18T13:56:56.468Z,97904.80
2023-02-18T13:59:33.041Z,97900.56
2023-02-18T14:02:33.820Z,97898.56
2023-02-18T14:05:24.921Z,97892.64
2023-02-18T14:08:08.420Z,97889.63
2023-02-18T14:10:42.786Z,97889.41
2023-02-18T14:13:29.812Z,97876.95
2023-02-18T14:16:03.197Z,97857.31
2023-02-18T14:19:01.357Z,97855.89
2023-02-18T14:21:43.260Z,97876.52
2023-02-18T14:24:18.270Z,97854.40
2023-02-18T14:26:52.230Z,97873.74
2023-02-18T14:29:30.695Z,97869.48
2023-02-18T14:32:06.504Z,97854.27
2023-02-18T14:38:01.413Z,97853.67
2023-02-18T14:40:48.867Z,97846.77
2023-02-18T14:43:24.884Z,97828.95
2023-02-18T14:46:08.397Z,97841.55
2023-02-18T14:48:51.665Z,97852.17
2023-02-18T14:51:28.560Z,97845.93
2023-02-18T14:54:07.452Z,97830.95
2023-02-18T14:56:44.526Z,97842.28
2023-02-18T14:59:19.777Z,97839.80
2023-02-18T15:01:54.407Z,97830.28
2023-02-18T15:04:28.772Z,97839.22
2023-02-18T15:07:04.700Z,97826.72
2023-02-18T15:09:39.545Z,97829.14
2023-02-18T15:12:15.116Z,97842.05
2023-02-18T15:14:51.218Z,97803.75
2023-02-18T15:17:28.031Z,97825.86
2023-02-18T15:20:05.889Z,97814.22
2023-02-18T15:22:39.459Z,97789.41
2023-02-18T15:25:14.778Z,97797.20
2023-02-18T15:27:48.236Z,97803.36
2023-02-18T15:30:25.253Z,97777.36
2023-02-18T15:33:00.628Z,97785.67
2023-02-18T15:35:34.892Z,97794.05
2023-02-18T15:38:20.052Z,97780.39
2023-02-18T15:40:55.753Z,97772.03
2023-02-18T15:43:30.091Z,97794.94
2023-02-18T15:46:05.152Z,97799.07
2023-02-18T15:48:41.341Z,97783.06
2023-02-18T15:51:18.077Z,97780.58
2023-02-18T15:53:54.372Z,97775.83
2023-02-18T15:56:31.815Z,97785.00
2023-02-18T15:59:14.226Z,97714.13
2023-02-18T16:01:53.034Z,97761.84
2023-02-18T16:04:28.865Z,97774.80
2023-02-18T16:07:05.071Z,97763.70
2023-02-18T16:09:40.380Z,97781.30
2023-02-18T16:12:35.546Z,97769.38
2023-02-18T16:15:17.628Z,97745.89
2023-02-18T16:17:51.422Z,97752.86
2023-02-18T16:20:31.175Z,97780.84
2023-02-18T16:23:06.749Z,97773.95
2023-02-18T16:25:44.408Z,97749.11
2023-02-18T16:28:19.827Z,97764.38
2023-02-18T16:30:53.091Z,97755.91
2023-02-18T16:33:26.696Z,97749.76
2023-02-18T16:36:00.241Z,97757.88
2023-02-18T16:38:34.394Z,97747.09
2023-02-18T16:41:08.573Z,97741.14
2023-02-18T16:43:42.005Z,97749.63
2023-02-18T16:46:19.139Z,97755.86
2023-02-18T16:48:55.911Z,97692.17
2023-02-18T16:51:33.358Z,97719.16
2023-02-18T16:54:07.064Z,97719.16
2023-02-18T16:56:41.393Z,97726.67
2023-02-18T16:59:14.912Z,97704.56
2023-02-18T17:01:48.244Z,97722.31
2023-02-18T17:04:23.745Z,97701.00
2023-02-18T17:06:57.529Z,97711.58
2023-02-18T17:09:30.801Z,97708.12
2023-02-18T17:12:05.124Z,97700.33
2023-02-18T17:14:39.252Z,97713.89
2023-02-18T17:17:14.455Z,97716.43
2023-02-18T17:19:47.948Z,97713.89
2023-02-18T17:22:21.173Z,97700.09
2023-02-18T17:24:54.524Z,97707.50
2023-02-18T17:27:27.841Z,97690.42
2023-02-18T17:30:01.298Z,97670.69
2023-02-18T17:32:35.623Z,97690.30
2023-02-18T17:35:11.498Z,97691.37
2023-02-18T17:37:45.169Z,97690.42
2023-02-18T17:40:23.665Z,97660.56
2023-02-18T17:42:57.908Z,97691.95
2023-02-18T17:45:34.635Z,97690.42
2023-02-18T17:48:08.788Z,97670.06
2023-02-18T17:50:42.836Z,97665.86
2023-02-18T17:53:18.648Z,97683.59
2023-02-18T17:55:52.284Z,97687.20
2023-02-18T17:58:25.857Z,97681.38
2023-02-18T18:01:00.256Z,97664.44
2023-02-18T18:03:33.559Z,97658.28
2023-02-18T18:06:10.351Z,97677.29
2023-02-18T18:08:44.177Z,97683.12
2023-02-18T18:11:20.459Z,97681.25
2023-02-18T18:13:54.216Z,97679.56
2023-02-18T18:16:28.035Z,97656.75
2023-02-18T18:19:01.494Z,97657.81
2023-02-18T18:21:37.045Z,97669.38
2023-02-18T18:24:13.802Z,97643.28
2023-02-18T18:26:47.641Z,97656.06
2023-02-18T18:29:21.435Z,97663.49
2023-02-18T18:31:58.558Z,97666.25
2023-02-18T18:34:33.598Z,97640.73
2023-02-18T18:37:09.042Z,97658.67
2023-02-18T18:39:43.488Z,97653.58
2023-02-18T18:42:17.179Z,97655.17
2023-02-18T18:44:51.996Z,97654.26
2023-02-18T18:47:31.350Z,97655.06
2023-02-18T18:50:06.000Z,97609.13
2023-02-18T18:52:40.819Z,97625.31
2023-02-18T18:55:27.166Z,97618.56
2023-02-18T18:58:01.989Z,97615.13
2023-02-18T19:00:37.465Z,97629.48
2023-02-18T19:03:13.398Z,97637.24
2023-02-18T19:05:48.145Z,97640.47
2023-02-18T19:08:29.500Z,97612.32
2023-02-18T19:11:06.117Z,97621.85
2023-02-18T19:13:39.916Z,97632.56
2023-02-18T19:16:20.197Z,97630.97
2023-02-18T19:18:54.405Z,97619.05
2023-02-18T19:21:28.264Z,97610.04
2023-02-18T19:24:01.553Z,97603.03
2023-02-18T19:26:35.297Z,97598.20
2023-02-18T19:29:08.692Z,97612.32
2023-02-18T19:31:43.922Z,97605.25
2023-02-18T19:34:19.299Z,97604.15
2023-02-18T19:36:55.832Z,97620.05
2023-02-18T19:39:29.243Z,97595.72
2023-02-18T19:42:02.921Z,97516.67
2023-02-18T19:44:37.789Z,97613.69
2023-02-18T19:47:13.118Z,97605.73
2023-02-18T19:49:47.045Z,97583.84
2023-02-18T19:52:21.548Z,97595.08
2023-02-18T19:54:57.746Z,97577.80
2023-02-18T19:57:32.301Z,97597.09
2023-02-18T20:00:09.755Z,97600.58
2023-02-18T20:02:45.536Z,97600.37
2023-02-18T20:05:25.708Z,97568.19
2023-02-18T20:08:00.397Z,97581.65
2023-02-18T20:10:37.226Z,97581.77
2023-02-18T20:13:14.160Z,97567.39
2023-02-18T20:15:54.042Z,97592.83
2023-02-18T20:18:30.041Z,97549.49
2023-02-18T20:21:04.368Z,97551.80
2023-02-18T20:23:38.050Z,97587.59
2023-02-18T20:26:12.896Z,97588.01
2023-02-18T20:28:46.506Z,97584.61
2023-02-18T20:31:20.628Z,97576.09
2023-02-18T20:33:55.647Z,97581.44
2023-02-18T20:36:29.656Z,97587.33
2023-02-18T20:39:15.816Z,97581.17
2023-02-18T20:41:38.653Z,97564.73
2023-02-18T20:44:12.044Z,97554.67
2023-02-18T20:46:46.431Z,97555.73
2023-02-18T20:49:22.079Z,97563.25
2023-02-18T20:51:55.580Z,97558.11
2023-02-18T20:54:29.621Z,97556.09
2023-02-18T20:57:03.793Z,97566.36
2023-02-18T20:59:37.022Z,97556.30
2023-02-18T21:02:11.789Z,97557.09
2023-02-18T21:04:45.763Z,97554.23
2023-02-18T21:07:19.068Z,97547.37
2023-02-18T21:09:52.598Z,97543.20
2023-02-18T21:12:25.884Z,97529.59
2023-02-18T21:14:59.154Z,97501.83
2023-02-18T21:17:36.932Z,97496.74
2023-02-18T21:20:11.859Z,97524.60
2023-02-18T21:22:45.395Z,97530.37
2023-02-18T21:25:19.004Z,97519.22
2023-02-18T21:27:52.068Z,97526.02
2023-02-18T21:30:25.623Z,97520.38
2023-02-18T21:32:59.486Z,97512.52
2023-02-18T21:35:33.203Z,97495.80
2023-02-18T21:38:10.649Z,97517.59
2023-02-18T21:40:45.161Z,97503.97
2023-02-18T21:43:18.617Z,97518.06
2023-02-18T21:45:53.271Z,97509.79
2023-02-18T21:48:44.153Z,97486.17
2023-02-18T21:51:20.962Z,97510.65
2023-02-18T21:53:54.543Z,97514.45
2023-02-18T21:56:28.028Z,97503.25
2023-02-18T21:59:01.478Z,97493.32
2023-02-18T22:01:34.908Z,97501.63
2023-02-18T22:04:08.390Z,97490.66
2023-02-18T22:06:41.794Z,97504.78
2023-02-18T22:09:16.112Z,97508.86
2023-02-18T22:11:49.984Z,97476.20
2023-02-18T22:14:23.563Z,97485.31
2023-02-18T22:16:57.253Z,97500.71
2023-02-18T22:19:30.745Z,97496.42
2023-02-18T22:22:04.025Z,97508.06
2023-02-18T22:24:37.882Z,97496.09
2023-02-18T22:27:12.032Z,97496.09
2023-02-18T22:29:47.377Z,97498.58
2023-02-18T22:32:21.248Z,97479.89
2023-02-18T22:34:55.995Z,97490.95
2023-02-18T22:37:29.256Z,97495.14
2023-02-18T22:40:02.902Z,97496.95
2023-02-18T22:42:39.137Z,97486.66
2023-02-18T22:45:12.729Z,97473.81
2023-02-18T22:47:46.189Z,97489.73
2023-02-18T22:50:19.712Z,97477.17
2023-02-18T22:52:53.316Z,97483.64
2023-02-18T22:55:27.013Z,97489.73
2023-02-18T22:58:00.386Z,97482.16
2023-02-18T23:00:33.837Z,97478.55
2023-02-18T23:03:09.449Z,97483.91
2023-02-18T23:05:43.054Z,97477.09
2023-02-18T23:08:16.658Z,97477.97
2023-02-18T23:10:51.327Z,97483.73
2023-02-18T23:13:24.678Z,97481.31
2023-02-18T23:16:02.232Z,97483.05
2023-02-18T23:18:35.177Z,97481.31
2023-02-18T23:21:18.500Z,97478.77
2023-02-18T23:23:53.460Z,97479.45
2023-02-18T23:26:28.059Z,97457.49
2023-02-18T23:29:01.396Z,97478.55
2023-02-18T23:31:39.854Z,97484.53
2023-02-18T23:34:17.362Z,97483.58
2023-02-18T23:36:51.022Z,97478.50
2023-02-18T23:39:25.684Z,97481.03
2023-02-18T23:41:59.390Z,97467.54
2023-02-18T23:44:33.524Z,97466.68
2023-02-18T23:47:06.932Z,97465.73
2023-02-18T23:49:40.082Z,97467.27
2023-02-18T23:52:14.400Z,97454.50
2023-02-18T23:54:47.925Z,97454.77
2023-02-18T23:57:21.433Z,97450.30
2023-02-18T23:59:54.931Z,97449.36
